Terminal Aerodrome Forecast
Issued by NWS Louisville, KY

Home | Current Version | Previous Version | Text Only | Print | Product List | Glossary On
Versions: 1 2 3 4 5 6 7 8 9 10 11 12 13 14 15 16 17 18 19 20 21 22 23 24 25 26 27 28
000
FTUS43 KLMK 040500
TAFSDF
TAF
KSDF 040536Z 0406/0512 31007KT 3SM RA BR SCT008 OVC015
      TEMPO 0406/0408 2SM RA BR BKN008
     FM040800 33007KT 5SM -RA BR BKN009
      TEMPO 0410/0414 2SM RA BR BKN006
     FM041500 35007KT 2SM -RAPL BR BKN007
     FM041800 36010KT 1SM -SN BR BKN008=

USA.gov is the U.S. government's official web portal to all federal, state and local government web resources and services.